This is the latest recevied weather packets stored in our database for station/object W1LBM. If no packets are shown the sender has not sent any weather packets the latest 1 day(s).
| Time | Temp. | Humidity | Pressure | Rain* | Wind** | Luminosity | Snow |
|---|---|---|---|---|---|---|---|
| 1777984484 | 16.11° C | 73% | 1014.2 hPa | 0 mm | 1.34 m/s, 181° | 193 W/m² | - |
| 1777984180 | 15.56° C | 75% | 1014.2 hPa | 0 mm | 1.34 m/s, 172° | 187 W/m² | - |
| 1777983878 | 15° C | 77% | 1014.3 hPa | 0 mm | 0.89 m/s, 160° | 121 W/m² | - |
| 1777983574 | 15° C | 78% | 1014.2 hPa | 0 mm | 0 m/s | 81 W/m² | - |
| 1777983272 | 14.44° C | 80% | 1014.1 hPa | 0 mm | 0.45 m/s, 159° | 68 W/m² | - |
| 1777982967 | 13.89° C | 81% | 1014.2 hPa | 0 mm | 0.45 m/s, 161° | 72 W/m² | - |
| 1777982664 | 13.89° C | 81% | 1014.2 hPa | 0 mm | 0.45 m/s, 160° | 83 W/m² | - |
| 1777982363 | 13.89° C | 81% | 1014.3 hPa | 0 mm | 0.89 m/s, 166° | 84 W/m² | - |
| 1777982060 | 13.89° C | 82% | 1014.2 hPa | 0 mm | 0.89 m/s, 135° | 66 W/m² | - |
| 1777981758 | 13.33° C | 83% | 1014.1 hPa | 0 mm | 0.89 m/s, 166° | 126 W/m² | - |
| 1777981454 | 13.33° C | 83% | 1014 hPa | 0 mm | 0.45 m/s, 139° | 99 W/m² | - |
| 1777981150 | 12.78° C | 84% | 1014.1 hPa | 0 mm | 0 m/s | 64 W/m² | - |
| 1777980847 | 12.78° C | 85% | 1014.2 hPa | 0 mm | 0 m/s | 100 W/m² | - |
| 1777980543 | 12.78° C | 86% | 1014.2 hPa | 0 mm | 1.34 m/s, 187° | 63 W/m² | - |
| 1777980240 | 12.22° C | 87% | 1014.2 hPa | 0 mm | 0.89 m/s, 189° | 68 W/m² | - |
| 1777979936 | 12.22° C | 87% | 1014.1 hPa | 0 mm | 0.89 m/s, 152° | 72 W/m² | - |
| 1777979642 | 12.22° C | 88% | 1013.8 hPa | 0 mm | 0.89 m/s, 182° | 102 W/m² | - |
| 1777979327 | 11.67° C | 88% | 1013.9 hPa | 0 mm | 0.45 m/s, 158° | 69 W/m² | - |
| 1777979025 | 11.67° C | 89% | 1013.9 hPa | 0 mm | 0.45 m/s, 155° | 82 W/m² | - |
| 1777978721 | 11.67° C | 89% | 1014 hPa | 0 mm | 1.34 m/s, 169° | 106 W/m² | - |
| 1777978418 | 11.67° C | 90% | 1014 hPa | 0 mm | 0.45 m/s, 153° | 96 W/m² | - |
| 1777978114 | 11.11° C | 91% | 1013.8 hPa | 0 mm | 0.89 m/s, 179° | 80 W/m² | - |
| 1777977812 | 10.56° C | 93% | 1013.8 hPa | 0 mm | 0.45 m/s, 161° | 69 W/m² | - |
| 1777977507 | 10.56° C | 95% | 1013.7 hPa | 0 mm | 0 m/s | 60 W/m² | - |
| 1777977205 | 10° C | 96% | 1013.8 hPa | 0 mm | 0 m/s | 47 W/m² | - |
* Rain latest hour (hover to see other rain measurements)
** Current wind speed in m/s (hover to see current wind gust speed)